Terminal Aerodrome Forecast
Issued by NWS Duluth, MN

Home | Current Version | Previous Version | Text Only | Print | Product List | Glossary On
Versions: 1 2 3 4 5 6 7 8 9 10 11 12 13 14 15 16 17 18 19 20 21 22 23 24 25 26 27 28 29 30 31 32
000
FTUS43 KDLH 262322
TAFDLH
TAF
KDLH 262322Z 2700/2724 11005KT P6SM FEW030
     FM270400 VRB04KT P6SM SCT045
     FM271400 25006KT P6SM SCT050
     FM272000 25007KT P6SM BKN050=

USA.gov is the U.S. government's official web portal to all federal, state and local government web resources and services.